Time;durP1;ratioP1;P1;durP2;ratioP2;P2;SDS_P1;SDS_P2;PMS_P1;PMS_P2;Temp;Humidity;BMP_temperature;BMP_pressure;BME280_temperature;BME280_humidity;BME280_pressure;Samples;Min_cycle;Max_cycle;Signal;HPM_P1;HPM_P2
2022/12/13 00:02:04;;;;;;;48.92;27.23;;;;;;;-5.03;98.08;99965.72;5097502;28;20229;-58
2022/12/13 00:04:30;;;;;;;46.72;25.33;;;;;;;-5.08;97.84;99965.00;5081120;28;20555;-58
2022/12/13 00:06:57;;;;;;;49.92;25.92;;;;;;;-5.19;97.42;99971.41;5099234;28;20629;-58
2022/12/13 00:09:25;;;;;;;53.75;28.63;;;;;;;-5.26;97.29;99967.31;5098580;28;20231;-58
2022/12/13 00:11:53;;;;;;;47.88;26.75;;;;;;;-5.27;97.00;99959.53;5081696;28;20710;-58
2022/12/13 00:14:20;;;;;;;45.80;26.58;;;;;;;-5.26;97.17;99962.09;5083707;28;20248;-58
2022/12/13 00:16:47;;;;;;;56.17;28.00;;;;;;;-5.26;97.27;99963.81;5095320;28;20229;-58
2022/12/13 00:19:15;;;;;;;48.05;26.95;;;;;;;-5.33;97.13;99956.22;5100591;28;20233;-57
2022/12/13 00:21:41;;;;;;;52.50;29.55;;;;;;;-5.37;97.25;99949.38;5098519;28;20256;-58
2022/12/13 00:24:08;;;;;;;52.25;27.35;;;;;;;-5.30;97.52;99942.22;5093778;28;20245;-58
2022/12/13 00:26:37;;;;;;;56.25;28.80;;;;;;;-5.29;97.56;99943.94;5080509;28;20249;-57
2022/12/13 00:29:05;;;;;;;57.55;27.55;;;;;;;-5.25;98.00;99942.94;5061292;28;20473;-58
2022/12/13 00:31:32;;;;;;;49.08;27.58;;;;;;;-5.27;97.91;99944.75;5087369;28;20317;-59
2022/12/13 00:33:59;;;;;;;48.47;27.15;;;;;;;-5.27;97.83;99946.50;5100985;28;20237;-58
2022/12/13 00:36:25;;;;;;;52.78;27.95;;;;;;;-5.30;97.66;99948.28;5088383;28;20247;-58
2022/12/13 00:39:00;;;;;;;49.85;26.30;;;;;;;-5.36;97.47;99947.63;5097408;28;20271;-58
2022/12/13 00:41:28;;;;;;;56.53;27.75;;;;;;;-5.40;97.43;99940.81;5104083;28;20281;-57
2022/12/13 00:43:56;;;;;;;47.33;24.25;;;;;;;-5.41;97.39;99944.31;5095413;28;20198;-57
2022/12/13 00:46:22;;;;;;;52.00;25.58;;;;;;;-5.47;97.38;99941.91;5104614;28;20375;-58
2022/12/13 00:48:50;;;;;;;46.42;26.23;;;;;;;-5.54;97.22;99944.69;5096563;28;20252;-57
2022/12/13 00:51:18;;;;;;;49.35;25.58;;;;;;;-5.56;97.10;99941.25;5097788;28;20270;-58
2022/12/13 00:53:44;;;;;;;40.10;23.65;;;;;;;-5.60;96.90;99938.81;5088858;28;20206;-59
2022/12/13 00:56:13;;;;;;;53.70;27.17;;;;;;;-5.54;96.93;99943.81;5092774;28;20226;-58
2022/12/13 00:58:39;;;;;;;56.90;29.00;;;;;;;-5.55;97.23;99948.19;5101692;28;20757;-57
2022/12/13 01:01:09;;;;;;;53.90;28.20;;;;;;;-5.47;97.14;99944.50;5092691;28;20261;-58
2022/12/13 01:03:36;;;;;;;49.30;26.08;;;;;;;-5.41;97.38;99945.16;5101121;28;20229;-58
2022/12/13 01:06:09;;;;;;;48.13;26.92;;;;;;;-5.50;97.50;99943.69;5103625;28;20257;-57
2022/12/13 01:08:35;;;;;;;47.50;26.42;;;;;;;-5.50;97.15;99943.69;5088394;28;20301;-58
2022/12/13 01:11:03;;;;;;;45.20;24.50;;;;;;;-5.52;96.78;99945.50;5088950;28;20237;-58
2022/12/13 01:13:29;;;;;;;44.35;27.30;;;;;;;-5.48;96.80;99935.84;5102833;28;20205;-57
2022/12/13 01:15:56;;;;;;;49.78;27.25;;;;;;;-5.49;96.59;99940.19;5102032;28;20301;-57
2022/12/13 01:18:24;;;;;;;52.17;27.48;;;;;;;-5.54;96.32;99938.63;5102713;28;20229;-59
2022/12/13 01:20:58;;;;;;;47.60;26.23;;;;;;;-5.55;96.47;99931.72;5104424;28;20328;-57
2022/12/13 01:23:25;;;;;;;47.72;26.13;;;;;;;-5.55;96.48;99937.78;5087881;28;20269;-57
2022/12/13 01:25:51;;;;;;;52.97;25.95;;;;;;;-5.61;96.44;99945.75;5089628;28;20237;-57
2022/12/13 01:28:18;;;;;;;50.90;26.10;;;;;;;-5.76;96.32;99941.03;5104625;28;20612;-58
2022/12/13 01:30:45;;;;;;;50.58;27.63;;;;;;;-5.77;96.75;99939.31;5097660;28;20250;-57
2022/12/13 01:33:11;;;;;;;52.00;27.20;;;;;;;-5.78;96.90;99938.47;5095543;28;20254;-58
2022/12/13 01:35:39;;;;;;;55.50;25.45;;;;;;;-5.64;97.18;99947.59;5103578;28;20251;-57
2022/12/13 01:38:06;;;;;;;53.30;24.92;;;;;;;-5.70;97.40;99936.47;5091303;28;20313;-57
2022/12/13 01:40:32;;;;;;;51.67;27.73;;;;;;;-5.71;97.46;99931.31;5099574;28;20233;-57
2022/12/13 01:42:59;;;;;;;52.40;26.23;;;;;;;-5.79;97.17;99928.09;5097137;28;20273;-58
2022/12/13 01:45:27;;;;;;;42.38;25.92;;;;;;;-5.81;97.31;99935.94;5089091;28;20225;-58
2022/12/13 01:47:56;;;;;;;52.50;24.33;;;;;;;-5.81;97.10;99929.91;5101480;28;20281;-58
2022/12/13 01:50:28;;;;;;;49.40;24.42;;;;;;;-5.71;97.49;99931.31;5100365;28;20210;-57
2022/12/13 01:52:57;;;;;;;53.47;26.73;;;;;;;-5.71;97.81;99926.09;5098659;28;20244;-57
2022/12/13 01:55:25;;;;;;;51.63;28.42;;;;;;;-5.75;97.82;99925.34;5089488;28;20229;-57
2022/12/13 01:57:53;;;;;;;46.60;26.02;;;;;;;-5.75;97.56;99911.47;5095756;28;20210;-57
2022/12/13 02:00:20;;;;;;;43.95;24.30;;;;;;;-5.80;97.63;99921.19;5083881;28;20194;-57
2022/12/13 02:02:47;;;;;;;53.13;27.00;;;;;;;-5.83;97.54;99929.06;5083414;28;20229;-57
2022/12/13 02:05:19;;;;;;;56.67;25.80;;;;;;;-5.84;97.62;99920.41;5090400;28;20205;-57
2022/12/13 02:07:47;;;;;;;53.88;26.00;;;;;;;-5.76;97.36;99923.66;5102787;28;20213;-57
2022/12/13 02:10:15;;;;;;;45.85;24.90;;;;;;;-5.86;97.37;99923.06;5062555;28;20698;-58
2022/12/13 02:12:41;;;;;;;47.63;23.98;;;;;;;-5.92;97.38;99922.38;5088271;28;20281;-58
2022/12/13 02:15:11;;;;;;;46.53;26.13;;;;;;;-6.03;97.09;99929.69;5087100;28;20249;-58
2022/12/13 02:17:51;;;;;;;44.00;25.50;;;;;;;-6.10;96.95;99927.25;5092879;28;20546;-57
2022/12/13 02:20:43;;;;;;;44.45;23.90;;;;;;;-6.03;96.96;99924.50;5097607;28;20319;-58
2022/12/13 02:23:24;;;;;;;40.53;23.58;;;;;;;-5.97;96.90;99926.91;5086707;28;20277;-58
2022/12/13 02:26:13;;;;;;;53.95;25.63;;;;;;;-6.00;96.59;99922.66;5085897;28;20257;-57
2022/12/13 02:28:53;;;;;;;44.38;25.08;;;;;;;-6.12;96.18;99926.44;5082114;28;20216;-58
2022/12/13 02:31:27;;;;;;;43.40;24.83;;;;;;;-6.20;96.03;99933.63;5092197;28;20248;-57
2022/12/13 02:33:58;;;;;;;45.53;22.13;;;;;;;-6.15;95.97;99933.50;5099197;28;20229;-57
2022/12/13 02:36:29;;;;;;;40.17;24.15;;;;;;;-6.13;95.93;99924.72;5100812;28;20324;-58
2022/12/13 02:38:59;;;;;;;42.80;24.08;;;;;;;-6.11;95.82;99922.97;5094268;28;20327;-58
2022/12/13 02:41:33;;;;;;;42.47;23.40;;;;;;;-6.14;95.60;99919.59;5090814;28;20253;-58
2022/12/13 02:44:04;;;;;;;40.67;23.75;;;;;;;-6.17;95.69;99917.91;5087939;28;20701;-58
2022/12/13 02:46:35;;;;;;;44.70;23.65;;;;;;;-6.14;96.25;99920.44;5097370;28;20233;-57
2022/12/13 02:49:02;;;;;;;44.63;23.83;;;;;;;-6.14;96.22;99917.84;5092424;28;20269;-58
2022/12/13 02:51:29;;;;;;;37.10;23.30;;;;;;;-6.11;96.40;99912.56;5097829;28;20279;-58
2022/12/13 02:53:55;;;;;;;45.88;24.63;;;;;;;-6.07;96.25;99910.72;5088108;28;20201;-57
2022/12/13 02:56:22;;;;;;;45.72;23.60;;;;;;;-6.07;96.23;99914.16;5095217;28;20256;-58
2022/12/13 02:58:50;;;;;;;52.35;24.02;;;;;;;-6.08;96.09;99909.84;5096276;28;20190;-58
2022/12/13 03:01:35;;;;;;;54.55;26.38;;;;;;;-6.15;96.18;99926.53;5097027;28;20264;-58
2022/12/13 03:04:07;;;;;;;50.60;26.15;;;;;;;-6.22;95.84;99932.81;5082719;28;20600;-58
2022/12/13 03:06:40;;;;;;;43.95;24.52;;;;;;;-6.21;95.82;99931.94;5094383;28;20249;-58
2022/12/13 03:09:19;;;;;;;47.47;25.38;;;;;;;-6.15;95.77;99934.34;5097208;28;20626;-58
2022/12/13 03:15:02;;;;;;;45.42;23.75;;;;;;;-6.14;95.69;99925.66;5085260;28;20248;-58
2022/12/13 03:17:33;;;;;;;49.42;25.60;;;;;;;-6.11;95.88;99929.91;5088148;28;20386;-58
2022/12/13 03:20:01;;;;;;;47.60;26.55;;;;;;;-6.13;95.85;99934.28;5076229;28;20282;-58
2022/12/13 03:22:28;;;;;;;47.20;25.17;;;;;;;-6.13;95.85;99934.28;5094392;28;20237;-58
2022/12/13 03:24:55;;;;;;;45.20;23.45;;;;;;;-6.17;95.77;99930.94;5098522;28;20205;-59
2022/12/13 03:27:22;;;;;;;42.33;25.63;;;;;;;-6.18;95.52;99939.66;5095728;28;20605;-58
2022/12/13 03:29:48;;;;;;;54.63;26.23;;;;;;;-6.28;95.58;99933.00;5081715;28;20235;-58
2022/12/13 03:32:15;;;;;;;45.05;24.40;;;;;;;-6.35;95.38;99928.84;5089390;28;20257;-58
2022/12/13 03:34:43;;;;;;;46.10;25.45;;;;;;;-6.39;95.19;99932.41;5091041;28;20290;-58
2022/12/13 03:37:09;;;;;;;40.42;24.00;;;;;;;-6.39;95.11;99924.63;5092239;28;20780;-57
2022/12/13 03:39:36;;;;;;;39.13;23.08;;;;;;;-6.38;95.01;99928.94;5099727;28;20262;-58
2022/12/13 03:42:03;;;;;;;49.60;22.63;;;;;;;-6.36;95.09;99930.59;5091720;28;20853;-58
2022/12/13 03:44:29;;;;;;;41.08;25.27;;;;;;;-6.43;94.87;99922.09;5089825;28;20285;-58
2022/12/13 03:46:56;;;;;;;37.53;22.92;;;;;;;-6.56;94.82;99931.13;5093910;28;20240;-58
2022/12/13 03:49:23;;;;;;;41.38;22.75;;;;;;;-6.60;94.96;99915.66;5085873;28;20253;-58
2022/12/13 03:51:51;;;;;;;45.88;23.75;;;;;;;-6.55;95.08;99918.97;5096724;28;20228;-57
2022/12/13 03:54:17;;;;;;;49.05;25.45;;;;;;;-6.53;95.14;99920.63;5101233;28;20700;-58
2022/12/13 03:56:44;;;;;;;44.42;22.77;;;;;;;-6.48;95.10;99917.91;5095791;28;20249;-58
2022/12/13 03:59:10;;;;;;;42.63;23.35;;;;;;;-6.44;95.23;99925.59;5093369;28;20201;-59
2022/12/13 04:01:37;;;;;;;46.30;23.35;;;;;;;-6.44;95.52;99927.34;5099139;28;20267;-57
2022/12/13 04:04:04;;;;;;;41.90;24.15;;;;;;;-6.50;95.34;99932.72;5088169;28;20697;-57
2022/12/13 04:06:30;;;;;;;47.25;25.08;;;;;;;-6.51;95.26;99929.28;5099515;28;20277;-58
2022/12/13 04:08:58;;;;;;;47.55;24.55;;;;;;;-6.45;95.36;99930.84;5095088;28;20246;-57
2022/12/13 04:14:10;;;;;;;49.60;24.58;;;;;;;-6.37;95.87;99922.81;5089166;28;20217;-58
2022/12/13 04:16:36;;;;;;;48.33;25.17;;;;;;;-6.31;96.31;99917.47;5097325;28;20336;-58
2022/12/13 04:19:03;;;;;;;45.35;24.52;;;;;;;-6.41;96.29;99914.25;5093865;28;20261;-58
2022/12/13 04:21:29;;;;;;;43.42;24.73;;;;;;;-6.37;96.47;99917.63;5098677;28;20297;-58
2022/12/13 04:23:56;;;;;;;50.60;25.52;;;;;;;-6.44;96.64;99917.81;5099062;28;20300;-58
2022/12/13 04:26:24;;;;;;;47.67;24.67;;;;;;;-6.43;96.98;99903.03;5090551;28;20688;-58
2022/12/13 04:28:51;;;;;;;48.35;26.42;;;;;;;-6.44;96.95;99909.13;5089493;28;20304;-58
2022/12/13 04:31:17;;;;;;;48.42;23.15;;;;;;;-6.37;96.84;99915.91;5096444;28;20657;-58
2022/12/13 04:33:44;;;;;;;46.10;24.05;;;;;;;-6.39;96.89;99915.06;5087098;28;20224;-58
2022/12/13 04:36:10;;;;;;;45.22;25.60;;;;;;;-6.48;96.80;99910.13;5097262;28;20271;-58
2022/12/13 04:38:37;;;;;;;49.42;25.52;;;;;;;-6.59;96.47;99915.63;5097362;28;20237;-59
2022/12/13 04:41:05;;;;;;;45.95;24.00;;;;;;;-6.64;96.23;99917.47;5094015;28;20339;-58
2022/12/13 04:43:34;;;;;;;47.80;23.60;;;;;;;-6.71;96.04;99911.59;5086427;28;20722;-59
2022/12/13 04:46:00;;;;;;;47.08;25.08;;;;;;;-6.68;95.96;99901.13;5095129;28;20663;-58
2022/12/13 04:48:27;;;;;;;47.30;25.02;;;;;;;-6.66;95.80;99906.28;5094734;28;20241;-58
2022/12/13 04:50:53;;;;;;;43.95;24.58;;;;;;;-6.68;95.63;99911.50;5092150;28;20233;-58
2022/12/13 04:53:20;;;;;;;50.72;25.42;;;;;;;-6.66;95.59;99908.88;5087524;28;20281;-58
2022/12/13 04:55:47;;;;;;;48.17;23.73;;;;;;;-6.70;95.54;99909.81;5097118;28;20252;-58
2022/12/13 04:58:13;;;;;;;45.67;23.08;;;;;;;-6.68;95.40;99915.88;5088569;28;20221;-58
2022/12/13 05:00:41;;;;;;;53.50;27.45;;;;;;;-6.76;95.27;99908.25;5094916;28;20308;-57
2022/12/13 05:03:08;;;;;;;52.13;25.52;;;;;;;-6.72;95.15;99916.81;5098761;28;20268;-58
2022/12/13 05:05:34;;;;;;;41.10;24.10;;;;;;;-6.73;95.11;99912.53;5097662;28;20304;-58
2022/12/13 05:08:01;;;;;;;52.08;25.23;;;;;;;-6.69;95.11;99911.53;5088297;28;20283;-58
2022/12/13 05:10:28;;;;;;;52.10;26.65;;;;;;;-6.67;95.00;99909.75;5080886;28;20733;-58
2022/12/13 05:12:54;;;;;;;44.88;25.60;;;;;;;-6.73;95.28;99904.72;5080740;28;20456;-58
2022/12/13 05:15:21;;;;;;;59.03;26.83;;;;;;;-6.61;95.57;99904.41;5089918;28;20284;-58
2022/12/13 05:17:49;;;;;;;45.60;23.90;;;;;;;-6.56;95.84;99905.13;5092881;28;20240;-58
2022/12/13 05:20:16;;;;;;;52.15;25.58;;;;;;;-6.53;95.99;99905.03;5099303;28;20226;-58
2022/12/13 05:22:43;;;;;;;64.30;28.05;;;;;;;-6.63;95.97;99901.84;5083985;28;20293;-58
2022/12/13 05:25:10;;;;;;;57.05;28.60;;;;;;;-6.58;95.79;99904.28;5091439;28;20266;-58
2022/12/13 05:27:36;;;;;;;46.50;25.95;;;;;;;-6.65;95.68;99892.34;5084216;28;20230;-58
2022/12/13 05:30:03;;;;;;;48.85;28.10;;;;;;;-6.70;96.08;99902.03;5083788;28;20278;-57
2022/12/13 05:32:32;;;;;;;55.15;25.30;;;;;;;-6.66;96.15;99901.06;5089692;28;20252;-64
2022/12/13 05:35:00;;;;;;;53.72;26.80;;;;;;;-6.72;96.10;99891.66;5086229;28;20241;-64
2022/12/13 05:37:27;;;;;;;55.40;27.08;;;;;;;-6.65;96.25;99884.56;5092530;28;20257;-64
2022/12/13 05:39:53;;;;;;;48.15;23.58;;;;;;;-6.85;96.22;99888.56;5099026;28;20198;-64
2022/12/13 05:42:20;;;;;;;50.45;24.35;;;;;;;-6.79;96.28;99895.31;5098120;28;20254;-63
2022/12/13 05:44:46;;;;;;;53.10;25.65;;;;;;;-6.75;96.43;99890.91;5087550;28;20250;-68
2022/12/13 05:47:13;;;;;;;42.63;22.90;;;;;;;-6.73;96.61;99883.94;5093417;28;20236;-69
2022/12/13 05:49:40;;;;;;;53.10;25.20;;;;;;;-6.74;96.53;99882.22;5092880;28;20321;-64
2022/12/13 05:52:16;;;;;;;47.75;25.25;;;;;;;-6.82;96.48;99885.03;5089727;28;20257;-68
2022/12/13 05:54:43;;;;;;;52.30;27.27;;;;;;;-6.90;96.35;99874.81;5100569;28;20209;-68
2022/12/13 05:57:09;;;;;;;47.58;23.83;;;;;;;-6.92;95.84;99875.78;5093750;28;20316;-68
2022/12/13 05:59:36;;;;;;;51.58;24.48;;;;;;;-6.98;95.56;99870.72;5092929;28;20228;-68
2022/12/13 06:02:03;;;;;;;49.05;26.00;;;;;;;-7.02;95.49;99870.78;5085665;28;20251;-69
2022/12/13 06:04:29;;;;;;;49.15;24.63;;;;;;;-7.07;95.49;99869.22;5101243;28;20452;-67
2022/12/13 06:06:56;;;;;;;44.13;23.05;;;;;;;-7.03;95.44;99866.50;5100806;28;20259;-60
2022/12/13 06:09:24;;;;;;;49.85;24.67;;;;;;;-6.97;95.35;99875.88;5093238;28;20278;-65
2022/12/13 06:11:50;;;;;;;52.42;25.48;;;;;;;-6.97;95.08;99875.03;5089449;28;20321;-69
2022/12/13 06:14:17;;;;;;;56.80;27.17;;;;;;;-6.98;95.34;99868.97;5097996;28;20779;-69
2022/12/13 06:16:44;;;;;;;52.28;25.38;;;;;;;-6.92;95.83;99876.63;5093263;28;20255;-69
2022/12/13 06:19:10;;;;;;;50.97;24.05;;;;;;;-6.89;96.17;99880.88;5081560;28;20202;-69
2022/12/13 06:21:37;;;;;;;55.40;29.67;;;;;;;-6.98;96.44;99878.50;5083087;28;20240;-69
2022/12/13 06:24:06;;;;;;;48.75;26.00;;;;;;;-6.93;96.25;99874.91;5098919;28;20248;-68
2022/12/13 06:26:34;;;;;;;54.13;26.08;;;;;;;-6.82;95.92;99872.03;5097122;28;20236;-69
2022/12/13 06:29:01;;;;;;;49.20;23.15;;;;;;;-6.93;95.82;99874.91;5075600;28;20223;-68
2022/12/13 06:31:27;;;;;;;54.00;26.08;;;;;;;-6.99;96.47;99867.28;5064069;28;20364;-69
2022/12/13 06:33:54;;;;;;;52.20;24.92;;;;;;;-6.94;96.66;99870.59;5080913;28;20238;-69
2022/12/13 06:36:20;;;;;;;50.00;26.02;;;;;;;-7.06;96.93;99865.72;5080466;28;20268;-68
2022/12/13 06:38:47;;;;;;;58.67;26.10;;;;;;;-6.98;97.27;99871.56;5076653;28;20320;-68
2022/12/13 06:41:16;;;;;;;59.85;26.25;;;;;;;-6.91;97.25;99867.94;5081088;28;20234;-69
2022/12/13 06:43:45;;;;;;;55.25;27.38;;;;;;;-6.86;97.27;99868.63;5074739;28;20292;-70
2022/12/13 06:46:12;;;;;;;50.25;24.05;;;;;;;-6.91;97.10;99878.34;5080243;28;20538;-68
2022/12/13 06:48:39;;;;;;;56.90;25.98;;;;;;;-6.92;97.30;99873.16;5080662;28;20214;-70
2022/12/13 06:51:07;;;;;;;57.22;24.00;;;;;;;-6.86;97.30;99871.25;5080750;28;20242;-65
2022/12/13 06:53:35;;;;;;;51.42;25.73;;;;;;;-6.85;96.98;99879.91;5080786;28;20718;-69
2022/12/13 06:56:04;;;;;;;59.63;28.67;;;;;;;-6.83;97.13;99886.75;5081259;28;20257;-69
2022/12/13 06:58:30;;;;;;;60.92;28.00;;;;;;;-6.81;97.08;99884.13;5081856;28;20258;-69
2022/12/13 07:01:03;;;;;;;60.08;27.73;;;;;;;-6.79;97.04;99897.09;5080274;28;20268;-68
2022/12/13 07:03:30;;;;;;;52.92;27.55;;;;;;;-6.85;96.60;99895.50;5080140;28;20623;-69
2022/12/13 07:05:58;;;;;;;61.60;26.98;;;;;;;-6.97;96.32;99899.25;5080368;28;20333;-68
2022/12/13 07:08:25;;;;;;;54.10;25.70;;;;;;;-7.00;95.93;99894.13;5080841;28;20241;-69
2022/12/13 07:10:54;;;;;;;51.47;26.90;;;;;;;-6.99;95.70;99893.25;5080385;28;20241;-68
2022/12/13 07:13:20;;;;;;;54.05;27.05;;;;;;;-6.92;95.59;99902.59;5081492;28;20242;-67
2022/12/13 07:15:47;;;;;;;61.22;25.15;;;;;;;-6.87;95.12;99898.13;5079496;28;20234;-69
2022/12/13 07:18:15;;;;;;;54.95;27.50;;;;;;;-7.02;94.76;99898.53;5081422;28;20197;-70
2022/12/13 07:20:42;;;;;;;53.80;25.48;;;;;;;-7.13;94.62;99903.13;5079549;28;20250;-69
2022/12/13 07:23:09;;;;;;;59.42;28.20;;;;;;;-7.15;94.82;99897.13;5079618;28;20302;-69
2022/12/13 07:25:36;;;;;;;56.00;26.27;;;;;;;-7.06;94.88;99896.91;5080380;28;20291;-68
2022/12/13 07:28:04;;;;;;;49.50;25.02;;;;;;;-6.95;95.05;99902.66;5081236;28;20442;-69
2022/12/13 07:30:33;;;;;;;58.80;26.23;;;;;;;-6.95;94.84;99904.44;5079699;28;20276;-69
2022/12/13 07:33:00;;;;;;;49.40;24.60;;;;;;;-7.03;94.79;99902.88;5080403;28;20280;-70
2022/12/13 07:35:29;;;;;;;70.55;26.65;;;;;;;-6.97;94.82;99904.47;5080099;28;20317;-68
2022/12/13 07:37:56;;;;;;;66.22;25.80;;;;;;;-6.90;94.85;99905.16;5087213;28;20283;-68
2022/12/13 07:40:22;;;;;;;51.95;25.77;;;;;;;-6.79;94.82;99905.72;5090336;28;20229;-59
2022/12/13 07:42:49;;;;;;;54.75;26.30;;;;;;;-6.74;94.56;99905.63;5080583;28;20691;-59
2022/12/13 07:45:17;;;;;;;51.42;28.70;;;;;;;-6.73;94.35;99909.94;5079865;28;20233;-59
2022/12/13 07:47:43;;;;;;;51.40;25.92;;;;;;;-6.57;94.28;99910.38;5080201;28;20197;-59
2022/12/13 07:50:10;;;;;;;50.50;25.23;;;;;;;-6.51;94.26;99905.00;5078361;28;20744;-60
2022/12/13 07:52:39;;;;;;;54.38;24.80;;;;;;;-6.48;94.21;99910.13;5080526;28;20239;-59
2022/12/13 07:55:06;;;;;;;57.63;25.90;;;;;;;-6.25;94.33;99910.34;5080572;28;20237;-59
2022/12/13 07:57:33;;;;;;;61.60;26.52;;;;;;;-6.12;94.24;99910.00;5079755;28;20237;-59
2022/12/13 08:00:00;;;;;;;59.35;27.90;;;;;;;-6.05;93.56;99911.53;5079994;28;20221;-59
2022/12/13 08:02:27;;;;;;;52.45;28.10;;;;;;;-5.96;93.23;99907.78;5078768;28;20711;-59
2022/12/13 08:04:54;;;;;;;59.58;29.10;;;;;;;-6.00;93.07;99909.63;5079852;28;20214;-58
2022/12/13 08:07:21;;;;;;;54.88;26.30;;;;;;;-5.75;93.26;99908.88;5077657;28;20257;-58
2022/12/13 08:09:49;;;;;;;57.83;26.65;;;;;;;-5.43;92.17;99912.22;5079427;28;20314;-59
2022/12/13 08:12:15;;;;;;;60.65;27.10;;;;;;;-5.37;91.88;99909.44;5079195;28;20252;-59
2022/12/13 08:14:42;;;;;;;49.78;23.65;;;;;;;-5.23;91.43;99911.63;5080219;28;20221;-58
2022/12/13 08:17:08;;;;;;;63.92;28.15;;;;;;;-5.07;91.26;99915.41;5079252;28;20240;-59
2022/12/13 08:19:35;;;;;;;57.45;27.45;;;;;;;-5.09;90.50;99918.97;5079294;28;20233;-58
2022/12/13 08:22:03;;;;;;;62.83;30.17;;;;;;;-5.05;90.50;99916.25;5079506;28;20261;-59
2022/12/13 08:24:30;;;;;;;62.28;27.05;;;;;;;-5.06;90.62;99918.91;5079328;28;20240;-59
2022/12/13 08:27:00;;;;;;;61.80;27.65;;;;;;;-5.27;90.92;99905.66;5079048;28;20260;-59
2022/12/13 08:29:27;;;;;;;58.35;25.65;;;;;;;-5.14;90.78;99913.91;5080275;28;20654;-58
2022/12/13 08:31:54;;;;;;;68.28;27.77;;;;;;;-5.15;91.09;99920.03;5078300;28;20230;-58
2022/12/13 08:34:21;;;;;;;56.47;26.67;;;;;;;-4.92;90.47;99920.13;5079183;28;20210;-59
2022/12/13 08:36:47;;;;;;;61.75;27.30;;;;;;;-4.79;90.27;99912.75;5079757;28;20257;-58
2022/12/13 08:39:14;;;;;;;55.25;26.85;;;;;;;-4.47;89.60;99918.63;5079358;28;20257;-60
2022/12/13 08:41:41;;;;;;;55.22;27.15;;;;;;;-4.28;89.21;99915.38;5078861;28;20234;-58
2022/12/13 08:44:09;;;;;;;58.13;25.17;;;;;;;-4.28;88.65;99910.16;5079724;28;20242;-58
2022/12/13 08:46:36;;;;;;;64.10;28.63;;;;;;;-4.20;88.42;99913.31;5078363;28;20237;-58
2022/12/13 08:49:02;;;;;;;54.95;27.00;;;;;;;-4.12;88.27;99908.66;5078637;28;20272;-59
2022/12/13 08:51:29;;;;;;;55.72;28.45;;;;;;;-3.82;88.19;99909.28;5079392;28;20722;-59
2022/12/13 08:53:55;;;;;;;58.80;29.90;;;;;;;-3.09;87.88;99920.38;5078655;28;20226;-58
2022/12/13 08:56:22;;;;;;;61.90;28.23;;;;;;;-2.23;86.19;99915.88;5079264;28;20249;-58
2022/12/13 08:58:50;;;;;;;55.53;28.27;;;;;;;-2.01;81.61;99921.03;5081582;28;20190;-59
2022/12/13 09:01:18;;;;;;;54.63;28.47;;;;;;;-1.39;79.85;99919.06;5082734;28;20312;-59
2022/12/13 09:03:45;;;;;;;60.13;29.00;;;;;;;-0.50;74.29;99924.31;5082172;28;20453;-59
2022/12/13 09:06:13;;;;;;;49.70;25.97;;;;;;;-0.41;73.04;99921.19;5082593;28;20237;-59
2022/12/13 09:08:40;;;;;;;46.93;24.33;;;;;;;-0.43;70.71;99920.44;5083038;28;20494;-59
2022/12/13 09:11:08;;;;;;;43.33;22.87;;;;;;;-0.04;69.07;99929.78;5082592;28;20484;-59
2022/12/13 09:13:36;;;;;;;47.60;23.30;;;;;;;0.47;67.25;99924.44;5083229;28;20475;-59
2022/12/13 09:16:04;;;;;;;42.70;23.17;;;;;;;0.14;69.20;99932.34;5082070;28;20472;-59
2022/12/13 09:18:32;;;;;;;44.17;24.70;;;;;;;1.32;64.46;99922.28;5082916;28;20420;-59
2022/12/13 09:20:58;;;;;;;43.93;23.50;;;;;;;1.17;62.19;99923.19;5082355;28;20464;-59
2022/12/13 09:23:25;;;;;;;44.77;21.27;;;;;;;1.55;61.43;99928.00;5082461;28;20463;-58
2022/12/13 09:25:55;;;;;;;40.43;21.90;;;;;;;0.65;63.38;99912.03;5082198;28;20472;-59
2022/12/13 09:28:22;;;;;;;38.90;19.53;;;;;;;1.28;61.65;99926.03;5083528;28;20432;-60
2022/12/13 09:30:49;;;;;;;37.00;20.00;;;;;;;0.77;62.58;99936.81;5081544;28;20473;-59
2022/12/13 09:33:16;;;;;;;36.30;21.17;;;;;;;1.07;61.93;99922.84;5083080;28;20456;-59
2022/12/13 09:35:44;;;;;;;43.90;21.73;;;;;;;1.03;62.50;99932.72;5081652;28;20480;-59
2022/12/13 09:38:11;;;;;;;38.40;22.30;;;;;;;1.12;62.14;99931.34;5082203;28;20484;-58
2022/12/13 09:40:38;;;;;;;38.00;21.70;;;;;;;1.41;60.33;99928.81;5082399;28;20908;-59
2022/12/13 09:43:06;;;;;;;42.43;23.27;;;;;;;1.39;59.91;99928.03;5082961;28;20528;-58
2022/12/13 09:45:34;;;;;;;35.60;21.20;;;;;;;1.04;62.19;99929.16;5081551;28;21160;-58
2022/12/13 09:48:01;;;;;;;39.97;22.27;;;;;;;1.34;62.58;99936.22;5082292;28;21078;-58
2022/12/13 09:50:31;;;;;;;40.03;22.20;;;;;;;2.26;57.76;99928.03;5082063;28;20492;-59
2022/12/13 09:53:00;;;;;;;36.10;21.10;;;;;;;3.64;55.14;99935.00;5081690;28;20463;-59
2022/12/13 09:55:29;;;;;;;38.63;20.93;;;;;;;2.76;56.25;99932.81;5082047;28;21094;-59
2022/12/13 09:57:55;;;;;;;39.87;21.83;;;;;;;3.29;57.02;99932.94;5082419;28;20937;-59
2022/12/13 10:00:24;;;;;;;36.63;20.73;;;;;;;4.43;53.13;99928.59;5081686;28;20468;-59
2022/12/13 10:02:52;;;;;;;36.20;21.70;;;;;;;3.14;54.15;99932.13;5081719;28;20775;-58
2022/12/13 10:05:23;;;;;;;32.43;20.33;;;;;;;3.07;54.96;99922.91;5080853;28;20480;-58
2022/12/13 10:07:51;;;;;;;38.10;21.17;;;;;;;4.51;51.63;99920.09;5081728;28;20498;-59
2022/12/13 10:10:19;;;;;;;38.90;20.97;;;;;;;3.61;53.39;99930.78;5061933;28;20512;-59
2022/12/13 10:12:50;;;;;;;34.50;21.33;;;;;;;4.04;51.32;99933.09;5071539;28;20487;-58
2022/12/13 10:15:19;;;;;;;40.10;21.57;;;;;;;1.88;58.86;99928.59;5081427;28;21023;-59
2022/12/13 10:17:47;;;;;;;34.60;21.30;;;;;;;3.06;55.86;99926.53;5081778;28;20428;-59
2022/12/13 10:20:18;;;;;;;34.87;21.07;;;;;;;3.07;55.47;99930.84;5080990;28;20476;-59
2022/12/13 10:22:45;;;;;;;39.80;21.20;;;;;;;3.09;54.66;99918.38;5081001;28;20907;-59
2022/12/13 10:25:11;;;;;;;31.70;19.40;;;;;;;4.34;51.98;99908.09;5081740;28;20514;-59
2022/12/13 10:27:41;;;;;;;37.57;22.53;;;;;;;3.06;54.50;99910.69;5081621;28;20453;-59
2022/12/13 10:30:10;;;;;;;37.13;21.63;;;;;;;4.28;51.26;99901.41;5080851;28;20519;-59
2022/12/13 10:32:44;;;;;;;34.00;20.73;;;;;;;3.49;53.84;99906.00;5081957;28;20453;-59
2022/12/13 10:35:25;;;;;;;36.73;21.47;;;;;;;4.03;52.65;99902.31;5080957;28;20491;-59
2022/12/13 10:37:52;;;;;;;34.30;20.37;;;;;;;4.59;50.87;99899.22;5081237;28;20488;-59
2022/12/13 10:40:27;;;;;;;36.03;21.07;;;;;;;3.67;53.82;99903.06;5081036;28;20520;-59
2022/12/13 10:43:08;;;;;;;38.50;22.63;;;;;;;3.96;53.12;99903.72;5080928;28;20548;-59
2022/12/13 10:45:35;;;;;;;40.30;22.07;;;;;;;4.16;52.30;99894.34;5081544;28;20480;-59
2022/12/13 10:48:02;;;;;;;37.30;20.70;;;;;;;3.58;53.58;99888.69;5081698;28;20486;-59
2022/12/13 10:50:29;;;;;;;39.67;21.87;;;;;;;3.63;53.38;99891.84;5079664;28;20504;-59
2022/12/13 10:52:58;;;;;;;32.23;19.10;;;;;;;3.74;52.49;99888.47;5081062;28;20941;-59
2022/12/13 10:55:29;;;;;;;36.57;21.77;;;;;;;2.63;56.27;99872.91;5081582;28;20452;-59
2022/12/13 10:57:58;;;;;;;37.60;21.73;;;;;;;3.33;54.99;99877.13;5080585;28;20820;-59
2022/12/13 11:00:36;;;;;;;35.27;20.70;;;;;;;3.63;53.74;99873.34;5080169;28;20453;-59
2022/12/13 11:03:03;;;;;;;37.73;22.53;;;;;;;3.34;54.42;99885.91;5080742;28;20516;-59
2022/12/13 11:05:32;;;;;;;34.77;20.33;;;;;;;4.11;52.50;99870.03;5079351;28;20503;-59
2022/12/13 11:08:12;;;;;;;37.83;21.80;;;;;;;4.56;50.97;99864.19;5081217;28;20476;-59
2022/12/13 11:10:39;;;;;;;31.60;19.90;;;;;;;4.43;52.07;99859.78;5080411;28;20476;-59
2022/12/13 11:13:07;;;;;;;33.17;20.60;;;;;;;4.31;51.73;99863.31;5080250;28;20480;-59
2022/12/13 11:15:36;;;;;;;40.20;20.37;;;;;;;4.08;51.39;99849.94;5081090;28;20495;-58
2022/12/13 11:18:07;;;;;;;34.30;20.00;;;;;;;4.55;51.74;99842.19;5080939;28;20885;-59
2022/12/13 11:20:36;;;;;;;35.63;21.40;;;;;;;4.25;52.17;99839.94;5078407;28;20470;-59
2022/12/13 11:23:05;;;;;;;31.43;20.13;;;;;;;3.68;53.18;99831.59;5080120;28;20461;-59
2022/12/13 11:25:37;;;;;;;35.97;20.10;;;;;;;3.68;53.52;99836.88;5080828;28;20464;-58
2022/12/13 11:28:13;;;;;;;35.90;19.97;;;;;;;3.39;54.66;99833.59;5080336;28;20452;-59
2022/12/13 11:30:47;;;;;;;34.00;19.97;;;;;;;2.98;56.35;99829.31;5080041;28;20495;-59